North Carver, Massachusetts
Current Conditions -  °F | °C
As of 2:52 AM on Friday 19 Dec 2014 (Local Time) from KPYM Reporting Station
Overcast Overcast  
Wind Chill: 31°   Ceiling: 3800
Heat Index: 35°   Visibility: 10mi
Dew Point: 28°   Wind: 5mph
Humidity: 76%   Direction: 290°WNW
Pressure: 29.86"   Gusts: NA
Location:  41.92°N, 70.8°W
Report Text: KPYM 190752Z AUTO 29004KT 10SM OVC038 02/M02 A2986 RMK AO2 SLP113 T00171022
Loading
Personal Weather Stations






























Interactive Weather Map New forecast layout! Learn more

10-Day Weather Forecast

Advertisements
Track Severe Weather on mobile